createdAt,value
2022-09-11T00:05:05.783Z,1.30
2022-09-11T00:07:36.957Z,1.33
2022-09-11T00:10:03.785Z,1.52
2022-09-11T00:12:30.964Z,1.23
2022-09-11T00:14:57.414Z,1.52
2022-09-11T00:17:24.087Z,1.42
2022-09-11T00:19:50.662Z,1.30
2022-09-11T00:22:29.427Z,1.20
2022-09-11T00:24:56.210Z,1.30
2022-09-11T00:27:22.652Z,1.40
2022-09-11T00:32:41.343Z,1.23
2022-09-11T00:40:54.632Z,1.42
2022-09-11T00:43:21.825Z,1.35
2022-09-11T00:48:39.450Z,1.50
2022-09-11T00:51:06.265Z,1.38
2022-09-11T00:53:36.827Z,1.10
2022-09-11T00:56:09.700Z,1.20
2022-09-11T00:58:39.888Z,1.42
2022-09-11T01:01:06.449Z,1.30
2022-09-11T01:03:37.503Z,1.30
2022-09-11T01:06:04.595Z,1.55
2022-09-11T01:08:38.241Z,1.50
2022-09-11T01:11:23.222Z,1.65
2022-09-11T01:14:19.388Z,1.50
2022-09-11T01:17:13.123Z,1.50
2022-09-11T01:20:01.426Z,1.38
2022-09-11T01:23:02.809Z,1.38
2022-09-11T01:25:55.090Z,1.33
2022-09-11T01:28:51.772Z,1.40
2022-09-11T01:31:25.037Z,1.33
2022-09-11T01:34:11.596Z,1.35
2022-09-11T01:36:48.483Z,1.40
2022-09-11T01:39:20.252Z,1.30
2022-09-11T01:41:46.686Z,1.35
2022-09-11T01:44:18.588Z,1.00
2022-09-11T01:46:49.868Z,1.60
2022-09-11T01:49:28.569Z,1.60
2022-09-11T01:52:03.443Z,1.30
2022-09-11T01:54:34.915Z,1.40
2022-09-11T01:57:06.757Z,1.38
2022-09-11T01:59:41.085Z,1.50
2022-09-11T02:02:13.360Z,1.17
2022-09-11T02:04:57.452Z,1.38
2022-09-11T02:07:34.353Z,1.33
2022-09-11T02:10:07.552Z,1.40
2022-09-11T02:12:43.476Z,1.35
2022-09-11T02:15:13.625Z,1.35
2022-09-11T02:17:55.712Z,1.60
2022-09-11T02:20:22.385Z,1.38
2022-09-11T02:22:55.849Z,1.20
2022-09-11T02:25:22.407Z,1.20
2022-09-11T02:28:01.620Z,1.40
2022-09-11T02:30:28.350Z,1.00
2022-09-11T02:32:55.183Z,1.02
2022-09-11T02:35:26.145Z,1.40
2022-09-11T02:38:21.236Z,1.10
2022-09-11T02:41:09.162Z,1.38
2022-09-11T02:43:42.625Z,1.52
2022-09-11T02:46:16.274Z,1.35
2022-09-11T02:48:58.004Z,1.20
2022-09-11T02:51:41.600Z,1.25
2022-09-11T02:57:19.888Z,1.10
2022-09-11T02:59:53.220Z,1.20
2022-09-11T03:05:00.489Z,1.23
2022-09-11T03:07:34.958Z,1.40
2022-09-11T03:10:01.519Z,1.10
2022-09-11T03:17:50.780Z,1.20
2022-09-11T03:20:21.174Z,1.30
2022-09-11T03:25:28.291Z,1.42
2022-09-11T03:30:36.336Z,1.08
2022-09-11T03:33:03.058Z,1.35
2022-09-11T03:35:29.562Z,1.40
2022-09-11T03:40:42.123Z,1.50
2022-09-11T03:43:09.438Z,1.30
2022-09-11T03:45:36.271Z,1.30
2022-09-11T03:48:02.834Z,1.48
2022-09-11T03:50:29.325Z,1.50
2022-09-11T03:52:55.812Z,1.58
2022-09-11T03:55:23.805Z,1.58
2022-09-11T03:57:50.295Z,1.20
2022-09-11T04:00:16.829Z,1.50
2022-09-11T04:02:43.315Z,1.70
2022-09-11T04:05:10.640Z,1.55
2022-09-11T04:07:37.960Z,1.83
2022-09-11T04:10:04.843Z,1.63
2022-09-11T04:12:31.377Z,1.55
2022-09-11T04:14:57.826Z,1.63
2022-09-11T04:17:24.492Z,1.50
2022-09-11T04:19:50.991Z,1.50
2022-09-11T04:22:18.645Z,1.83
2022-09-11T04:24:45.253Z,1.52
2022-09-11T04:27:12.885Z,1.55
2022-09-11T04:29:39.311Z,1.42
2022-09-11T04:32:05.894Z,1.40
2022-09-11T04:34:32.390Z,1.35
2022-09-11T04:36:58.820Z,1.23
2022-09-11T04:39:25.350Z,1.70
2022-09-11T04:41:52.151Z,1.70
2022-09-11T04:44:20.681Z,1.45
2022-09-11T04:46:47.517Z,1.50
2022-09-11T04:49:22.007Z,1.50
2022-09-11T04:51:48.527Z,1.70
2022-09-11T04:54:16.736Z,1.60
2022-09-11T04:56:43.559Z,1.40
2022-09-11T04:59:19.786Z,1.67
2022-09-11T05:01:46.677Z,1.30
2022-09-11T05:04:14.225Z,1.35
2022-09-11T05:06:46.333Z,1.52
2022-09-11T05:09:12.785Z,2.28
2022-09-11T05:11:39.486Z,1.98
2022-09-11T05:14:06.425Z,2.20
2022-09-11T05:16:34.792Z,2.30
2022-09-11T05:21:44.558Z,3.30
2022-09-11T05:24:11.734Z,3.38
2022-09-11T05:26:38.601Z,3.53
2022-09-11T05:29:09.086Z,4.00
2022-09-11T05:34:04.397Z,3.33
2022-09-11T05:36:31.143Z,3.40
2022-09-11T05:38:59.133Z,2.90
2022-09-11T05:41:33.741Z,2.42
2022-09-11T05:46:43.111Z,2.60
2022-09-11T05:49:09.981Z,2.40
2022-09-11T05:51:37.745Z,2.45
2022-09-11T05:54:04.871Z,2.13
2022-09-11T05:56:31.494Z,2.50
2022-09-11T05:58:58.671Z,2.42
2022-09-11T06:01:35.232Z,2.05
2022-09-11T06:04:02.727Z,2.03
2022-09-11T06:06:29.361Z,2.22
2022-09-11T06:08:55.963Z,2.00
2022-09-11T06:11:22.566Z,1.83
2022-09-11T06:13:50.405Z,2.15
2022-09-11T06:19:02.017Z,2.08
2022-09-11T06:21:29.263Z,2.13
2022-09-11T06:23:59.807Z,1.90
2022-09-11T06:26:27.246Z,1.77
2022-09-11T06:28:54.307Z,1.92
2022-09-11T06:31:24.266Z,2.10
2022-09-11T06:33:56.998Z,1.50
2022-09-11T06:36:30.356Z,1.63
2022-09-11T06:39:02.091Z,1.92
2022-09-11T06:41:28.701Z,1.95
2022-09-11T06:43:59.551Z,2.20
2022-09-11T06:49:07.328Z,1.75
2022-09-11T06:54:16.077Z,1.70
2022-09-11T06:56:42.563Z,1.60
2022-09-11T07:04:16.835Z,1.70
2022-09-11T07:09:24.811Z,1.52
2022-09-11T07:11:59.141Z,1.48
2022-09-11T07:17:04.857Z,1.60
2022-09-11T07:19:36.229Z,1.40
2022-09-11T07:22:02.805Z,1.60
2022-09-11T07:27:10.331Z,1.40
2022-09-11T07:32:17.216Z,1.55
2022-09-11T07:34:48.939Z,1.40
2022-09-11T07:37:15.903Z,1.33
2022-09-11T07:50:24.776Z,1.40
2022-09-11T07:52:51.301Z,1.25
2022-09-11T07:55:18.889Z,1.40
2022-09-11T07:57:46.479Z,1.25
2022-09-11T08:00:16.247Z,1.35
2022-09-11T08:02:42.962Z,1.42
2022-09-11T08:05:10.944Z,1.55
2022-09-11T08:07:37.772Z,1.45
2022-09-11T08:10:26.045Z,1.17
2022-09-11T08:12:55.705Z,1.20
2022-09-11T08:23:26.456Z,1.42
2022-09-11T08:28:35.942Z,1.20
2022-09-11T08:31:03.119Z,1.20
2022-09-11T08:33:30.131Z,1.27
2022-09-11T08:36:08.249Z,1.00
2022-09-11T08:38:38.701Z,1.10
2022-09-11T08:41:23.421Z,1.20
2022-09-11T08:44:05.536Z,1.15
2022-09-11T08:49:27.042Z,1.23
2022-09-11T08:57:52.330Z,1.10
2022-09-11T09:00:24.698Z,1.20
2022-09-11T09:06:16.444Z,1.13
2022-09-11T09:08:58.476Z,1.10
2022-09-11T09:11:34.138Z,1.27
2022-09-11T09:14:05.917Z,1.20
2022-09-11T09:16:52.263Z,1.08
2022-09-11T09:22:53.313Z,0.90
2022-09-11T09:25:38.650Z,0.98
2022-09-11T09:31:07.497Z,0.95
2022-09-11T09:33:42.434Z,1.10
2022-09-11T09:39:02.268Z,1.20
2022-09-11T09:41:49.566Z,1.17
2022-09-11T09:44:31.195Z,1.10
2022-09-11T09:49:39.543Z,1.10
2022-09-11T09:57:57.071Z,0.90
2022-09-11T10:11:29.593Z,0.98
2022-09-11T10:16:37.897Z,0.95
2022-09-11T10:19:10.096Z,1.00
2022-09-11T10:24:17.826Z,1.20
2022-09-11T10:26:52.532Z,0.95
2022-09-11T10:32:09.634Z,1.00
2022-09-11T10:34:38.459Z,0.75
2022-09-11T10:37:13.958Z,0.98
2022-09-11T10:39:44.126Z,1.00
2022-09-11T10:44:45.487Z,1.05
2022-09-11T10:47:25.135Z,0.80
2022-09-11T10:52:58.103Z,1.10
2022-09-11T11:01:01.593Z,0.80
2022-09-11T11:03:29.335Z,0.90
2022-09-11T11:06:14.550Z,0.90
2022-09-11T11:09:03.868Z,0.80
2022-09-11T11:14:49.623Z,1.02
2022-09-11T11:17:36.294Z,0.90
2022-09-11T11:20:31.668Z,0.90
2022-09-11T11:25:59.167Z,0.80
2022-09-11T11:28:58.283Z,1.00
2022-09-11T11:31:41.322Z,0.90
2022-09-11T11:34:25.574Z,0.77
2022-09-11T11:40:06.415Z,1.10
2022-09-11T11:42:39.910Z,0.80
2022-09-11T11:50:58.443Z,0.90
2022-09-11T11:53:39.401Z,0.70
2022-09-11T11:59:15.259Z,0.93
2022-09-11T12:01:56.200Z,0.80
2022-09-11T12:05:01.034Z,0.90
2022-09-11T12:07:38.132Z,0.90
2022-09-11T12:10:07.425Z,0.70
2022-09-11T12:12:42.758Z,1.00
2022-09-11T12:15:21.359Z,0.70
2022-09-11T12:18:00.280Z,0.93
2022-09-11T12:20:30.521Z,1.20
2022-09-11T12:25:28.944Z,0.80
2022-09-11T12:31:15.787Z,0.80
2022-09-11T12:33:47.169Z,0.85
2022-09-11T12:39:26.080Z,0.77
2022-09-11T12:42:01.264Z,0.85
2022-09-11T12:44:46.091Z,0.75
2022-09-11T12:47:23.336Z,0.80
2022-09-11T12:50:06.691Z,0.88
2022-09-11T12:52:45.305Z,0.88
2022-09-11T12:55:45.089Z,0.90
2022-09-11T12:58:22.510Z,0.85
2022-09-11T13:01:00.068Z,0.90
2022-09-11T13:03:28.126Z,1.00
2022-09-11T13:05:59.989Z,0.80
2022-09-11T13:08:41.303Z,0.90
2022-09-11T13:11:51.596Z,0.68
2022-09-11T13:17:48.934Z,0.75
2022-09-11T13:20:23.295Z,0.98
2022-09-11T13:22:56.146Z,0.80
2022-09-11T13:25:27.952Z,0.80
2022-09-11T13:27:57.448Z,0.80
2022-09-11T13:30:25.751Z,0.65
2022-09-11T13:35:48.529Z,0.73
2022-09-11T13:38:26.548Z,0.80
2022-09-11T13:43:49.099Z,0.80
2022-09-11T13:46:15.683Z,0.77
2022-09-11T13:48:47.098Z,0.93
2022-09-11T13:51:20.721Z,0.80
2022-09-11T13:53:56.930Z,0.80
2022-09-11T13:56:41.586Z,0.85
2022-09-11T14:02:20.670Z,0.80
2022-09-11T14:04:49.183Z,0.80
2022-09-11T14:13:18.964Z,0.88
2022-09-11T14:16:08.837Z,0.70
2022-09-11T14:18:43.378Z,0.60
2022-09-11T14:21:24.851Z,0.90
2022-09-11T14:23:56.598Z,0.90
2022-09-11T14:26:32.454Z,0.82
2022-09-11T14:31:46.416Z,0.90
2022-09-11T14:34:26.758Z,0.80
2022-09-11T14:36:55.544Z,0.90
2022-09-11T14:39:49.252Z,0.82
2022-09-11T14:42:19.340Z,0.95
2022-09-11T14:44:45.810Z,0.80
2022-09-11T14:47:23.163Z,0.77
2022-09-11T14:49:54.755Z,0.90
2022-09-11T14:52:35.943Z,0.73
2022-09-11T14:57:49.871Z,0.90
2022-09-11T15:00:18.740Z,0.70
2022-09-11T15:02:46.308Z,0.85
2022-09-11T15:05:19.175Z,0.80
2022-09-11T15:08:00.366Z,0.70
2022-09-11T15:10:27.501Z,0.70
2022-09-11T15:12:55.462Z,0.95
2022-09-11T15:15:21.929Z,0.88
2022-09-11T15:17:48.407Z,0.70
2022-09-11T15:20:14.943Z,0.93
2022-09-11T15:22:45.356Z,1.10
2022-09-11T15:25:20.265Z,1.00
2022-09-11T15:30:33.129Z,0.90
2022-09-11T15:32:59.609Z,1.20
2022-09-11T15:35:32.112Z,1.40
2022-09-11T15:38:13.887Z,1.05
2022-09-11T15:43:25.627Z,1.00
2022-09-11T15:48:32.633Z,1.20
2022-09-11T15:51:02.994Z,0.80
2022-09-11T15:53:40.061Z,0.93
2022-09-11T15:56:09.261Z,1.05
2022-09-11T15:58:37.826Z,0.98
2022-09-11T16:01:04.432Z,1.10
2022-09-11T16:06:12.166Z,0.82
2022-09-11T16:08:53.864Z,0.93
2022-09-11T16:11:34.855Z,0.95
2022-09-11T16:14:01.392Z,0.70
2022-09-11T16:19:09.421Z,0.95
2022-09-11T16:21:36.096Z,1.00
2022-09-11T16:26:47.343Z,0.80
2022-09-11T16:31:56.398Z,0.90
2022-09-11T16:34:23.239Z,0.85
2022-09-11T16:39:30.616Z,0.85
2022-09-11T16:41:57.120Z,0.80
2022-09-11T16:44:23.612Z,0.80
2022-09-11T16:46:50.140Z,0.70
2022-09-11T16:49:18.935Z,0.80
2022-09-11T16:51:47.278Z,0.82
2022-09-11T16:54:13.807Z,0.82
2022-09-11T16:56:45.263Z,0.80
2022-09-11T16:59:12.427Z,0.80
2022-09-11T17:01:39.422Z,1.00
2022-09-11T17:04:09.855Z,0.88
2022-09-11T17:09:25.035Z,0.80
2022-09-11T17:11:51.478Z,0.93
2022-09-11T17:14:19.802Z,0.90
2022-09-11T17:16:46.443Z,0.80
2022-09-11T17:19:12.907Z,0.88
2022-09-11T17:21:39.715Z,0.80
2022-09-11T17:24:09.701Z,0.95
2022-09-11T17:37:36.966Z,0.70
2022-09-11T17:40:07.611Z,0.70
2022-09-11T17:42:34.128Z,0.80
2022-09-11T17:45:01.228Z,0.85
2022-09-11T17:50:13.936Z,0.70
2022-09-11T17:52:40.512Z,0.80
2022-09-11T17:55:07.207Z,0.82
2022-09-11T18:00:14.793Z,0.68
2022-09-11T18:02:41.294Z,0.80
2022-09-11T18:05:07.891Z,0.80
2022-09-11T18:07:42.008Z,0.70
2022-09-11T18:10:08.933Z,0.82
2022-09-11T18:15:16.073Z,1.05
2022-09-11T18:17:46.406Z,0.90
2022-09-11T18:20:12.966Z,1.00
2022-09-11T18:28:03.793Z,0.70
2022-09-11T18:30:42.622Z,0.77
2022-09-11T18:35:55.874Z,0.90
2022-09-11T18:38:22.395Z,0.70
2022-09-11T18:40:56.020Z,0.75
2022-09-11T18:43:22.465Z,0.90
2022-09-11T18:48:29.759Z,0.70
2022-09-11T18:56:20.568Z,0.90
2022-09-11T18:58:49.118Z,1.02
2022-09-11T19:01:20.179Z,0.90
2022-09-11T19:09:10.417Z,0.80
2022-09-11T19:14:18.880Z,0.80
2022-09-11T19:16:45.815Z,0.80
2022-09-11T19:19:12.268Z,0.77
2022-09-11T19:21:38.734Z,0.63
2022-09-11T19:24:06.813Z,0.98
2022-09-11T19:26:43.593Z,0.85
2022-09-11T19:29:21.096Z,0.85
2022-09-11T19:34:28.622Z,0.90
2022-09-11T19:36:55.208Z,0.80
2022-09-11T19:39:21.860Z,1.00
2022-09-11T19:41:49.082Z,0.85
2022-09-11T19:44:15.786Z,0.95
2022-09-11T19:46:43.103Z,0.75
2022-09-11T19:49:18.708Z,0.80
2022-09-11T19:51:45.413Z,0.80
2022-09-11T19:59:34.168Z,0.80
2022-09-11T20:04:41.404Z,0.93
2022-09-11T20:07:08.007Z,1.00
2022-09-11T20:09:34.569Z,0.80
2022-09-11T20:12:01.680Z,0.85
2022-09-11T20:14:29.488Z,0.70
2022-09-11T20:16:56.018Z,0.93
2022-09-11T20:19:23.606Z,0.98
2022-09-11T20:21:50.440Z,0.90
2022-09-11T20:24:17.244Z,0.70
2022-09-11T20:26:43.744Z,0.80
2022-09-11T20:31:55.841Z,0.60
2022-09-11T20:34:24.533Z,0.90
2022-09-11T20:36:50.967Z,0.77
2022-09-11T20:39:24.108Z,0.80
2022-09-11T20:41:50.695Z,0.80
2022-09-11T20:44:17.194Z,0.77
2022-09-11T20:46:47.264Z,0.90
2022-09-11T20:49:13.815Z,0.80
2022-09-11T20:51:40.504Z,0.88
2022-09-11T20:56:50.860Z,1.10
2022-09-11T20:59:17.571Z,0.85
2022-09-11T21:01:44.114Z,0.80
2022-09-11T21:04:10.626Z,0.93
2022-09-11T21:06:37.153Z,0.90
2022-09-11T21:09:06.882Z,0.85
2022-09-11T21:11:34.710Z,0.90
2022-09-11T21:14:01.287Z,0.90
2022-09-11T21:16:28.676Z,0.82
2022-09-11T21:18:58.217Z,0.93
2022-09-11T21:21:26.871Z,0.95
2022-09-11T21:23:58.179Z,1.08
2022-09-11T21:26:27.445Z,1.00
2022-09-11T21:28:55.812Z,1.00
2022-09-11T21:31:23.425Z,0.90
2022-09-11T21:33:50.198Z,0.80
2022-09-11T21:36:17.407Z,1.00
2022-09-11T21:38:49.257Z,0.88
2022-09-11T21:41:15.817Z,1.00
2022-09-11T21:43:42.314Z,1.00
2022-09-11T21:46:09.498Z,1.00
2022-09-11T21:48:38.412Z,0.90
2022-09-11T21:51:14.098Z,0.70
2022-09-11T21:53:43.516Z,1.20
2022-09-11T21:56:20.656Z,1.05
2022-09-11T21:58:48.656Z,1.20
2022-09-11T22:01:15.427Z,0.90
2022-09-11T22:03:41.980Z,1.15
2022-09-11T22:06:10.674Z,1.00
2022-09-11T22:08:40.249Z,1.00
2022-09-11T22:11:07.306Z,1.20
2022-09-11T22:13:37.385Z,1.05
2022-09-11T22:16:11.256Z,1.02
2022-09-11T22:18:39.479Z,1.27
2022-09-11T22:23:51.716Z,1.17
2022-09-11T22:26:20.572Z,1.30
2022-09-11T22:28:47.373Z,1.00
2022-09-11T22:31:17.661Z,1.20
2022-09-11T22:33:44.792Z,1.00
2022-09-11T22:36:15.223Z,1.02
2022-09-11T22:38:43.070Z,1.10
2022-09-11T22:41:10.158Z,0.90
2022-09-11T22:43:39.968Z,1.10
2022-09-11T22:46:07.062Z,1.20
2022-09-11T22:48:34.176Z,1.13
2022-09-11T22:51:01.029Z,1.35
2022-09-11T22:53:28.603Z,1.10
2022-09-11T22:55:56.146Z,1.10
2022-09-11T22:58:23.801Z,1.05
2022-09-11T23:00:53.957Z,1.00
2022-09-11T23:06:06.860Z,1.13
2022-09-11T23:08:39.370Z,1.20
2022-09-11T23:11:06.482Z,1.23
2022-09-11T23:13:33.884Z,1.10
2022-09-11T23:16:00.999Z,1.20
2022-09-11T23:18:28.734Z,1.10
2022-09-11T23:20:56.911Z,1.10
2022-09-11T23:23:26.334Z,1.17
2022-09-11T23:25:52.865Z,1.55
2022-09-11T23:28:19.344Z,1.30
2022-09-11T23:30:45.825Z,1.27
2022-09-11T23:33:12.357Z,1.20
2022-09-11T23:35:39.817Z,1.20
2022-09-11T23:38:11.201Z,1.10
2022-09-11T23:40:38.688Z,1.05
2022-09-11T23:43:05.125Z,1.00
2022-09-11T23:45:31.613Z,1.35
2022-09-11T23:50:39.599Z,1.20
2022-09-11T23:53:06.232Z,1.40
